Time;durP1;ratioP1;P1;durP2;ratioP2;P2;SDS_P1;SDS_P2;PMS_P1;PMS_P2;Temp;Humidity;BMP_temperature;BMP_pressure;BME280_temperature;BME280_humidity;BME280_pressure;Samples;Min_cycle;Max_cycle;Signal;HPM_P1;HPM_P2
2022/08/28 00:03:28;;;;;;;3.83;3.45;;;;;;;;;;12582968;28;20051;-74
2022/08/28 00:09:30;;;;;;;3.47;3.17;;;;;;;;;;12601314;28;20517;-74
2022/08/28 00:15:34;;;;;;;3.78;3.42;;;;;;;;;;12583046;28;20033;-75
2022/08/28 00:21:36;;;;;;;3.22;3.03;;;;;;;;;;12582709;28;20036;-75
2022/08/28 00:27:54;;;;;;;3.60;3.30;;;;;;;;;;12582169;28;20037;-75
2022/08/28 00:33:55;;;;;;;3.58;3.28;;;;;;;;;;12583127;28;20044;-75
2022/08/28 00:39:57;;;;;;;3.92;3.47;;;;;;;;;;12581572;28;20032;-75
2022/08/28 00:46:00;;;;;;;3.35;3.05;;;;;;;;;;12599498;28;20036;-75
2022/08/28 00:52:10;;;;;;;4.55;4.15;;;;;;;;;;12599164;28;20040;-75
2022/08/28 00:58:12;;;;;;;3.47;3.17;;;;;;;;;;12581266;28;20033;-75
2022/08/28 01:04:16;;;;;;;4.07;3.78;;;;;;;;;;12598804;28;20033;-75
2022/08/28 01:10:20;;;;;;;4.63;4.32;;;;;;;;;;12579477;28;20041;-76
2022/08/28 01:16:22;;;;;;;4.13;3.72;;;;;;;;;;12580014;28;20035;-75
2022/08/28 01:22:36;;;;;;;4.20;3.53;;;;;;;;;;12597733;28;20107;-76
2022/08/28 01:28:38;;;;;;;4.40;3.88;;;;;;;;;;12596848;28;20053;-75
2022/08/28 01:34:40;;;;;;;5.03;4.60;;;;;;;;;;12578989;28;20040;-74
2022/08/28 01:40:43;;;;;;;3.92;3.58;;;;;;;;;;12579673;28;20032;-75
2022/08/28 01:46:46;;;;;;;4.35;4.03;;;;;;;;;;12578656;28;20039;-75
2022/08/28 01:52:48;;;;;;;4.32;3.53;;;;;;;;;;12596106;28;20040;-75
2022/08/28 01:58:50;;;;;;;4.72;3.58;;;;;;;;;;12561971;28;20040;-75
2022/08/28 02:04:52;;;;;;;;;;;;;;;;;;12578408;28;20088;-76
2022/08/28 02:10:53;;;;;;;4.13;3.72;;;;;;;;;;12595495;28;19983;-76
2022/08/28 02:16:55;;;;;;;;;;;;;;;;;;12577767;28;20044;-75
2022/08/28 02:22:57;;;;;;;3.90;3.60;;;;;;;;;;12595055;28;19915;-75
2022/08/28 02:28:59;;;;;;;4.22;3.83;;;;;;;;;;12594787;28;20045;-75
2022/08/28 02:35:01;;;;;;;3.47;3.17;;;;;;;;;;12595392;28;20043;-75
2022/08/28 02:41:02;;;;;;;;;;;;;;;;;;12611083;28;20037;-75
2022/08/28 02:47:04;;;;;;;3.90;3.60;;;;;;;;;;12594383;28;19916;-75
2022/08/28 02:53:06;;;;;;;4.22;3.20;;;;;;;;;;12593776;28;20053;-75
2022/08/28 02:59:08;;;;;;;3.17;2.95;;;;;;;;;;12576405;28;20029;-75
2022/08/28 03:05:10;;;;;;;4.10;3.70;;;;;;;;;;12575953;28;20033;-75
2022/08/28 03:11:11;;;;;;;3.97;3.67;;;;;;;;;;12593462;28;20048;-75
2022/08/28 03:17:13;;;;;;;;;;;;;;;;;;12595052;28;20055;-75
2022/08/28 03:23:27;;;;;;;3.85;3.55;;;;;;;;;;12575744;28;19915;-76
2022/08/28 03:29:28;;;;;;;3.75;3.40;;;;;;;;;;12592979;28;20048;-76
2022/08/28 03:35:30;;;;;;;4.00;3.60;;;;;;;;;;12562680;28;20387;-76
2022/08/28 03:41:33;;;;;;;3.97;3.58;;;;;;;;;;12567788;28;20024;-76
2022/08/28 03:47:36;;;;;;;4.60;4.20;;;;;;;;;;12602157;28;20035;-76
2022/08/28 03:53:38;;;;;;;4.88;4.47;;;;;;;;;;12583762;28;20032;-76
2022/08/28 03:59:40;;;;;;;5.03;4.68;;;;;;;;;;12602375;28;20401;-76
2022/08/28 04:05:43;;;;;;;5.20;4.80;;;;;;;;;;12583329;28;20039;-76
2022/08/28 04:11:45;;;;;;;5.35;4.25;;;;;;;;;;12601533;28;20040;-76
2022/08/28 04:17:46;;;;;;;4.85;4.45;;;;;;;;;;12600484;28;20040;-76
2022/08/28 04:23:48;;;;;;;4.10;3.80;;;;;;;;;;12600566;28;20032;-76
2022/08/28 04:29:50;;;;;;;4.65;4.20;;;;;;;;;;12600148;28;20056;-76
2022/08/28 04:35:51;;;;;;;4.32;3.95;;;;;;;;;;12599681;28;20202;-76
2022/08/28 04:41:54;;;;;;;4.68;4.30;;;;;;;;;;12599713;28;20036;-76
2022/08/28 04:47:56;;;;;;;4.10;3.80;;;;;;;;;;12580323;28;20036;-76
2022/08/28 04:53:58;;;;;;;4.07;3.78;;;;;;;;;;12564253;28;20386;-76
2022/08/28 05:00:00;;;;;;;;;;;;;;;;;;12582291;28;20028;-76
2022/08/28 05:06:02;;;;;;;4.40;4.00;;;;;;;;;;12598374;28;19919;-75
2022/08/28 05:12:04;;;;;;;3.60;3.38;;;;;;;;;;12579869;28;20040;-76
2022/08/28 05:18:06;;;;;;;4.28;3.67;;;;;;;;;;12597882;28;20044;-76
2022/08/28 05:24:08;;;;;;;4.25;3.85;;;;;;;;;;12587633;28;20035;-76
2022/08/28 05:30:10;;;;;;;4.53;4.13;;;;;;;;;;12611029;28;20063;-75
2022/08/28 05:36:33;;;;;;;4.05;3.75;;;;;;;;;;12581911;28;20037;-75
2022/08/28 05:42:37;;;;;;;4.88;4.47;;;;;;;;;;12578600;28;20041;-75
2022/08/28 05:48:39;;;;;;;4.88;3.92;;;;;;;;;;12596093;28;20048;-75
2022/08/28 05:54:42;;;;;;;4.57;4.18;;;;;;;;;;12578227;28;20039;-75
2022/08/28 06:00:44;;;;;;;4.43;4.10;;;;;;;;;;12578109;28;20044;-75
2022/08/28 06:07:14;;;;;;;4.30;3.92;;;;;;;;;;12572796;28;20041;-75
2022/08/28 06:13:16;;;;;;;4.90;4.25;;;;;;;;;;12577571;28;20070;-75
2022/08/28 06:19:19;;;;;;;4.13;3.65;;;;;;;;;;12594703;28;20040;-75
2022/08/28 06:25:21;;;;;;;5.93;5.43;;;;;;;;;;12594701;28;20032;-76
2022/08/28 06:31:24;;;;;;;5.18;4.78;;;;;;;;;;12576595;28;20052;-75
2022/08/28 06:37:26;;;;;;;4.53;4.13;;;;;;;;;;12576713;28;20032;-75
2022/08/28 06:43:29;;;;;;;4.25;3.88;;;;;;;;;;12576343;28;20028;-75
2022/08/28 06:49:30;;;;;;;3.47;3.08;;;;;;;;;;12575879;28;20044;-75
2022/08/28 06:55:32;;;;;;;3.65;3.38;;;;;;;;;;12575946;28;20029;-75
2022/08/28 07:01:34;;;;;;;;;;;;;;;;;;12576398;28;20045;-75
2022/08/28 07:07:35;;;;;;;3.77;3.47;;;;;;;;;;12593134;28;19908;-74
2022/08/28 07:13:37;;;;;;;3.15;2.95;;;;;;;;;;12585184;28;20402;-76
2022/08/28 07:19:39;;;;;;;2.90;2.70;;;;;;;;;;12585418;28;20051;-75
2022/08/28 07:25:41;;;;;;;3.58;3.25;;;;;;;;;;12602908;28;20037;-75
2022/08/28 07:31:46;;;;;;;4.03;3.63;;;;;;;;;;12584587;28;20457;-75
2022/08/28 07:37:48;;;;;;;3.75;3.08;;;;;;;;;;12584900;28;20398;-75
2022/08/28 07:50:10;;;;;;;3.70;3.40;;;;;;;;;;12602448;28;20497;-75
2022/08/28 07:56:12;;;;;;;;;;;;;;;;;;12567989;28;20036;-75
2022/08/28 08:02:13;;;;;;;3.88;3.58;;;;;;;;;;12602564;28;19916;-76
2022/08/28 08:08:15;;;;;;;;;;;;;;;;;;12567002;28;20043;-76
2022/08/28 08:14:16;;;;;;;4.23;3.40;;;;;;;;;;12582975;28;19920;-75
2022/08/28 08:20:18;;;;;;;4.15;3.75;;;;;;;;;;12583840;28;20037;-76
2022/08/28 08:26:21;;;;;;;4.60;4.15;;;;;;;;;;12600415;28;20055;-76
2022/08/28 08:32:23;;;;;;;4.93;4.53;;;;;;;;;;12600142;28;20048;-76
2022/08/28 08:38:27;;;;;;;4.38;3.63;;;;;;;;;;12599527;28;20031;-76
2022/08/28 08:44:40;;;;;;;4.68;4.28;;;;;;;;;;12581623;28;20044;-75
2022/08/28 08:50:41;;;;;;;4.43;4.03;;;;;;;;;;12581032;28;20040;-75
2022/08/28 08:56:44;;;;;;;3.42;3.22;;;;;;;;;;12564426;28;20490;-74
2022/08/28 09:02:52;;;;;;;5.90;5.20;;;;;;;;;;12580927;28;20043;-75
2022/08/28 09:08:57;;;;;;;4.82;4.30;;;;;;;;;;12581010;28;20055;-75
2022/08/28 09:15:08;;;;;;;4.28;3.88;;;;;;;;;;12564205;28;20032;-75
2022/08/28 09:21:10;;;;;;;3.75;3.45;;;;;;;;;;12597759;28;20041;-76
2022/08/28 09:27:26;;;;;;;4.50;4.10;;;;;;;;;;12597505;28;20040;-76
2022/08/28 09:33:34;;;;;;;4.95;4.55;;;;;;;;;;12596128;28;20052;-76
2022/08/28 09:39:36;;;;;;;5.93;5.43;;;;;;;;;;12579020;28;20489;-76
2022/08/28 09:45:38;;;;;;;3.95;3.65;;;;;;;;;;12578721;28;20036;-76
2022/08/28 09:51:40;;;;;;;4.47;4.10;;;;;;;;;;12595776;28;20044;-76
2022/08/28 09:57:44;;;;;;;4.65;4.25;;;;;;;;;;12595853;28;20048;-76
2022/08/28 10:04:04;;;;;;;4.25;3.92;;;;;;;;;;12569617;28;20485;-76
2022/08/28 10:10:09;;;;;;;4.38;4.03;;;;;;;;;;12594334;28;20045;-76
2022/08/28 10:16:30;;;;;;;4.18;3.88;;;;;;;;;;12593723;28;20382;-76
2022/08/28 10:22:41;;;;;;;3.75;3.17;;;;;;;;;;12576287;28;20028;-76
2022/08/28 10:28:42;;;;;;;5.03;3.73;;;;;;;;;;12559095;28;20064;-76
2022/08/28 10:35:03;;;;;;;3.67;3.38;;;;;;;;;;12575640;28;20039;-76
2022/08/28 10:41:23;;;;;;;3.20;2.90;;;;;;;;;;12593351;28;20032;-76
2022/08/28 10:47:26;;;;;;;3.87;3.57;;;;;;;;;;12593157;28;20025;-76
2022/08/28 10:53:34;;;;;;;2.80;2.60;;;;;;;;;;12558380;28;20052;-75
2022/08/28 10:59:37;;;;;;;4.03;3.63;;;;;;;;;;12575340;28;20036;-75
2022/08/28 11:05:48;;;;;;;5.03;3.60;;;;;;;;;;12575436;28;20040;-74
2022/08/28 11:11:52;;;;;;;5.00;4.30;;;;;;;;;;12592529;28;20367;-75
2022/08/28 11:17:54;;;;;;;4.43;3.95;;;;;;;;;;12574801;28;20477;-75
2022/08/28 11:24:07;;;;;;;3.60;3.28;;;;;;;;;;12558208;28;20037;-76
2022/08/28 11:30:09;;;;;;;4.03;3.72;;;;;;;;;;12557361;28;20415;-75
2022/08/28 11:36:31;;;;;;;3.92;3.53;;;;;;;;;;12574456;28;20025;-75
2022/08/28 11:42:35;;;;;;;3.88;3.50;;;;;;;;;;12574595;28;20421;-76
2022/08/28 11:48:42;;;;;;;4.28;3.47;;;;;;;;;;12573651;28;20478;-76
2022/08/28 11:54:44;;;;;;;4.57;4.18;;;;;;;;;;12593310;28;20040;-76
2022/08/28 12:00:45;;;;;;;3.53;3.22;;;;;;;;;;12566679;28;20044;-76
2022/08/28 12:06:53;;;;;;;4.32;3.88;;;;;;;;;;12583087;28;20478;-76
2022/08/28 12:12:58;;;;;;;3.80;3.50;;;;;;;;;;12598762;28;20041;-75
2022/08/28 12:19:02;;;;;;;3.83;3.53;;;;;;;;;;12580404;28;20017;-76
2022/08/28 12:25:04;;;;;;;3.53;3.00;;;;;;;;;;12580074;28;20394;-75
2022/08/28 12:31:06;;;;;;;2.60;2.40;;;;;;;;;;12564173;28;20057;-76
2022/08/28 12:37:27;;;;;;;3.28;2.97;;;;;;;;;;12599010;28;20501;-74
2022/08/28 12:43:32;;;;;;;4.20;3.83;;;;;;;;;;12598672;28;20025;-76
2022/08/28 12:49:35;;;;;;;3.15;2.95;;;;;;;;;;12580482;28;20056;-76
2022/08/28 12:55:37;;;;;;;3.33;2.67;;;;;;;;;;12580704;28;20047;-75
2022/08/28 13:01:40;;;;;;;3.75;3.25;;;;;;;;;;12580365;28;20378;-75
2022/08/28 13:07:46;;;;;;;3.60;3.30;;;;;;;;;;12597071;28;20548;-76
2022/08/28 13:13:49;;;;;;;3.20;2.88;;;;;;;;;;12598076;28;20080;-76
2022/08/28 13:20:01;;;;;;;3.00;2.70;;;;;;;;;;12579774;28;20043;-75
2022/08/28 13:26:04;;;;;;;3.03;2.83;;;;;;;;;;12597513;28;20028;-75
2022/08/28 13:32:07;;;;;;;3.35;3.05;;;;;;;;;;12597212;28;20498;-74
2022/08/28 13:38:11;;;;;;;4.13;2.70;;;;;;;;;;12596669;28;20032;-74
2022/08/28 13:44:40;;;;;;;2.63;2.42;;;;;;;;;;12578725;28;20047;-75
2022/08/28 13:50:43;;;;;;;2.40;2.20;;;;;;;;;;12592460;28;20052;-74
2022/08/28 13:56:45;;;;;;;2.53;2.33;;;;;;;;;;12579382;28;20036;-75
2022/08/28 14:09:16;;;;;;;3.00;2.50;;;;;;;;;;12571944;28;20486;-74
2022/08/28 14:15:18;;;;;;;2.95;2.72;;;;;;;;;;12595297;28;20032;-74
2022/08/28 14:21:21;;;;;;;4.22;2.20;;;;;;;;;;12559974;28;20359;-74
2022/08/28 14:27:23;;;;;;;2.33;2.13;;;;;;;;;;12577048;28;20481;-74
2022/08/28 14:33:24;;;;;;;2.95;2.40;;;;;;;;;;12559741;28;20422;-75
2022/08/28 14:39:27;;;;;;;3.88;3.30;;;;;;;;;;12576254;28;20021;-75
2022/08/28 14:45:28;;;;;;;3.10;2.85;;;;;;;;;;12576431;28;20037;-75
2022/08/28 14:51:31;;;;;;;3.53;2.55;;;;;;;;;;12576290;28;20036;-75
2022/08/28 14:57:33;;;;;;;2.20;2.00;;;;;;;;;;12575790;28;20032;-75
2022/08/28 15:03:35;;;;;;;2.30;2.10;;;;;;;;;;12575718;28;20036;-75
2022/08/28 15:09:38;;;;;;;1.98;1.85;;;;;;;;;;12575293;28;20532;-75
2022/08/28 15:15:41;;;;;;;2.33;2.13;;;;;;;;;;12593552;28;20470;-73
2022/08/28 15:21:48;;;;;;;2.50;2.35;;;;;;;;;;12575047;28;20122;-74
2022/08/28 15:27:50;;;;;;;1.90;1.80;;;;;;;;;;12593093;28;20037;-74
2022/08/28 15:33:52;;;;;;;2.30;1.95;;;;;;;;;;12583594;28;20486;-76
2022/08/28 15:46:14;;;;;;;2.47;2.23;;;;;;;;;;12602301;28;20025;-75
2022/08/28 15:52:15;;;;;;;1.80;1.70;;;;;;;;;;12583813;28;20305;-75
2022/08/28 15:58:17;;;;;;;1.80;1.70;;;;;;;;;;12601874;28;20398;-74
2022/08/28 16:04:19;;;;;;;2.33;2.13;;;;;;;;;;12601271;28;20036;-75
2022/08/28 16:10:21;;;;;;;2.30;1.92;;;;;;;;;;12601007;28;20044;-75
2022/08/28 16:16:23;;;;;;;1.92;1.83;;;;;;;;;;12583169;28;20027;-76
2022/08/28 16:22:24;;;;;;;2.03;1.92;;;;;;;;;;12583321;28;20037;-76
2022/08/28 16:28:26;;;;;;;2.22;2.10;;;;;;;;;;12582698;28;20051;-75
2022/08/28 16:34:28;;;;;;;2.30;2.10;;;;;;;;;;12565738;28;20056;-75
2022/08/28 16:40:30;;;;;;;2.25;1.80;;;;;;;;;;12599722;28;20032;-75
2022/08/28 16:46:32;;;;;;;2.88;2.38;;;;;;;;;;12583636;28;20028;-76
2022/08/28 16:52:34;;;;;;;2.67;1.83;;;;;;;;;;12582475;28;20178;-75
2022/08/28 16:58:37;;;;;;;2.60;2.17;;;;;;;;;;12564917;28;20036;-75
2022/08/28 17:04:38;;;;;;;2.60;2.40;;;;;;;;;;12599079;28;20413;-74
2022/08/28 17:10:40;;;;;;;2.70;2.50;;;;;;;;;;12580702;28;20036;-74
2022/08/28 17:16:42;;;;;;;2.50;2.30;;;;;;;;;;12580916;28;20037;-77
2022/08/28 17:22:44;;;;;;;6.78;1.95;;;;;;;;;;12563652;28;20037;-74
2022/08/28 17:28:46;;;;;;;2.47;2.10;;;;;;;;;;12579866;28;20057;-74
2022/08/28 17:34:48;;;;;;;2.40;2.20;;;;;;;;;;12597088;28;20044;-76
2022/08/28 17:40:52;;;;;;;1.73;1.63;;;;;;;;;;12597006;28;20568;-76
2022/08/28 17:46:53;;;;;;;1.70;1.60;;;;;;;;;;12578697;28;20035;-76
2022/08/28 17:52:55;;;;;;;3.13;2.03;;;;;;;;;;12595596;28;20041;-74
2022/08/28 17:58:57;;;;;;;1.52;1.42;;;;;;;;;;12596559;28;20043;-76
2022/08/28 18:05:00;;;;;;;2.65;2.17;;;;;;;;;;12595923;28;20076;-76
2022/08/28 18:11:02;;;;;;;2.42;1.50;;;;;;;;;;12595666;28;20047;-75
2022/08/28 18:17:04;;;;;;;1.60;1.50;;;;;;;;;;12595312;28;20033;-75
2022/08/28 18:23:07;;;;;;;1.70;1.60;;;;;;;;;;12577098;28;20036;-75
2022/08/28 18:29:09;;;;;;;1.55;1.45;;;;;;;;;;12577086;28;20418;-75
2022/08/28 18:35:11;;;;;;;1.73;1.63;;;;;;;;;;12577410;28;20033;-76
2022/08/28 18:41:13;;;;;;;2.45;1.63;;;;;;;;;;12577486;28;20378;-75
2022/08/28 18:47:15;;;;;;;1.40;1.30;;;;;;;;;;12576301;28;20473;-76
2022/08/28 18:53:18;;;;;;;1.20;1.10;;;;;;;;;;12593710;28;20426;-74
2022/08/28 18:59:21;;;;;;;1.40;1.30;;;;;;;;;;12594392;28;20040;-75
2022/08/28 19:05:22;;;;;;;1.52;1.40;;;;;;;;;;12575203;28;20036;-75
2022/08/28 19:11:24;;;;;;;1.58;1.48;;;;;;;;;;12593735;28;20036;-75
2022/08/28 19:17:26;;;;;;;1.00;1.00;;;;;;;;;;12575821;28;20040;-75
2022/08/28 19:23:28;;;;;;;1.40;1.30;;;;;;;;;;12575402;28;20037;-75
2022/08/28 19:29:30;;;;;;;1.40;1.30;;;;;;;;;;12593479;28;20045;-75
2022/08/28 19:35:32;;;;;;;1.52;1.25;;;;;;;;;;12575294;28;20301;-76
2022/08/28 19:41:35;;;;;;;1.27;1.17;;;;;;;;;;12593353;28;20494;-76
2022/08/28 19:47:37;;;;;;;1.40;1.30;;;;;;;;;;12574905;28;20409;-75
2022/08/28 19:53:39;;;;;;;1.30;1.20;;;;;;;;;;12592711;28;20508;-74
2022/08/28 19:59:41;;;;;;;1.67;1.08;;;;;;;;;;12592335;28;20047;-75
2022/08/28 20:05:43;;;;;;;2.17;1.98;;;;;;;;;;12592660;28;20044;-76
2022/08/28 20:11:45;;;;;;;2.45;1.08;;;;;;;;;;12574823;28;20047;-76
2022/08/28 20:17:47;;;;;;;1.50;1.40;;;;;;;;;;12579477;28;20031;-75
2022/08/28 20:23:49;;;;;;;1.48;1.20;;;;;;;;;;12583195;28;20036;-75
2022/08/28 20:29:51;;;;;;;1.00;0.95;;;;;;;;;;12601206;28;20053;-74
2022/08/28 20:35:59;;;;;;;1.98;1.58;;;;;;;;;;12600950;28;20036;-74
2022/08/28 20:42:01;;;;;;;5.03;3.60;;;;;;;;;;12600222;28;20111;-75
2022/08/28 20:48:03;;;;;;;2.67;2.45;;;;;;;;;;12581623;28;20021;-75
2022/08/28 20:54:05;;;;;;;5.13;2.03;;;;;;;;;;12598795;28;20044;-75
2022/08/28 21:00:07;;;;;;;;;;;;;;;;;;12598867;28;20028;-75
2022/08/28 21:06:09;;;;;;;3.80;1.70;;;;;;;;;;12580818;28;19920;-75
2022/08/28 21:12:11;;;;;;;;;;;;;;;;;;12598884;28;20048;-75
2022/08/28 21:18:12;;;;;;;2.90;2.30;;;;;;;;;;12564083;28;19939;-76
2022/08/28 21:24:14;;;;;;;;;;;;;;;;;;12580546;28;20182;-75
2022/08/28 21:30:17;;;;;;;9.77;2.10;;;;;;;;;;12578748;28;19920;-75
2022/08/28 21:36:18;;;;;;;3.17;1.65;;;;;;;;;;12597576;28;20033;-76
2022/08/28 21:42:20;;;;;;;1.58;1.23;;;;;;;;;;12597283;28;20036;-75
2022/08/28 21:48:22;;;;;;;3.30;1.40;;;;;;;;;;12579447;28;20047;-76
2022/08/28 21:54:23;;;;;;;1.25;1.00;;;;;;;;;;12561166;28;20040;-75
2022/08/28 22:00:25;;;;;;;0.90;0.75;;;;;;;;;;12597343;28;20024;-75
2022/08/28 22:06:26;;;;;;;;;;;;;;;;;;12578468;28;20037;-75
2022/08/28 22:12:28;;;;;;;2.10;1.10;;;;;;;;;;12595703;28;19916;-75
2022/08/28 22:18:30;;;;;;;1.92;1.42;;;;;;;;;;12578173;28;20470;-76
2022/08/28 22:24:32;;;;;;;;;;;;;;;;;;12577675;28;20417;-76
2022/08/28 22:30:34;;;;;;;2.22;1.40;;;;;;;;;;12595633;28;20381;-75
2022/08/28 22:36:36;;;;;;;;;;;;;;;;;;12577056;28;20044;-75
2022/08/28 22:42:38;;;;;;;1.42;1.27;;;;;;;;;;12559868;28;19908;-76
2022/08/28 22:48:40;;;;;;;;;;;;;;;;;;12560385;28;20036;-75
2022/08/28 22:54:42;;;;;;;1.67;1.20;;;;;;;;;;12576249;28;19923;-74
2022/08/28 23:00:43;;;;;;;1.73;1.20;;;;;;;;;;12576753;28;20040;-76
2022/08/28 23:06:45;;;;;;;1.25;1.15;;;;;;;;;;12594031;28;20036;-75
2022/08/28 23:12:47;;;;;;;2.08;1.20;;;;;;;;;;12574652;28;20047;-75
2022/08/28 23:18:52;;;;;;;2.58;1.77;;;;;;;;;;12557667;28;20044;-74
2022/08/28 23:24:54;;;;;;;3.40;2.05;;;;;;;;;;12558078;28;20043;-75
2022/08/28 23:30:56;;;;;;;2.03;1.83;;;;;;;;;;12592701;28;20537;-74
2022/08/28 23:36:58;;;;;;;1.60;1.50;;;;;;;;;;12574410;28;20036;-75
2022/08/28 23:42:59;;;;;;;1.60;1.50;;;;;;;;;;12591978;28;20037;-75
2022/08/28 23:49:01;;;;;;;2.17;1.48;;;;;;;;;;12573876;28;20055;-75
2022/08/28 23:55:03;;;;;;;2.72;1.90;;;;;;;;;;12600093;28;20482;-75
